Time;durP1;ratioP1;P1;durP2;ratioP2;P2;SDS_P1;SDS_P2;PMS_P1;PMS_P2;Temp;Humidity;BMP_temperature;BMP_pressure;BME280_temperature;BME280_humidity;BME280_pressure;Samples;Min_cycle;Max_cycle;Signal;HPM_P1;HPM_P2
2022/06/20 00:00:36;;;;;;;11.63;3.50;;;;;;;16.14;76.63;98773.81;5061725;28;20353;-57
2022/06/20 00:03:02;;;;;;;12.95;3.33;;;;;;;16.06;76.62;98789.88;5038881;28;20478;-56
2022/06/20 00:05:32;;;;;;;14.77;3.47;;;;;;;15.93;77.24;98783.28;5068530;28;20360;-57
2022/06/20 00:07:58;;;;;;;12.45;3.55;;;;;;;15.90;77.54;98771.16;5067652;28;20028;-57
2022/06/20 00:10:25;;;;;;;15.73;4.38;;;;;;;15.91;77.54;98763.84;5068380;28;20552;-56
2022/06/20 00:12:50;;;;;;;8.73;3.33;;;;;;;15.82;78.09;98782.56;5048546;28;20460;-56
2022/06/20 00:15:26;;;;;;;15.93;3.55;;;;;;;15.96;77.72;98786.19;5067775;28;20024;-55
2022/06/20 00:17:52;;;;;;;15.60;3.50;;;;;;;15.73;78.54;98777.00;5049406;28;20419;-56
2022/06/20 00:20:18;;;;;;;11.38;3.08;;;;;;;15.61;79.36;98760.34;5066666;28;20112;-56
2022/06/20 00:22:43;;;;;;;10.10;3.05;;;;;;;15.58;79.35;98757.44;5066818;28;20083;-56
2022/06/20 00:25:09;;;;;;;16.33;3.83;;;;;;;15.50;80.04;98745.34;5065740;28;20364;-57
2022/06/20 00:27:34;;;;;;;19.77;4.05;;;;;;;15.48;80.46;98766.44;5065420;28;20394;-56
2022/06/20 00:29:59;;;;;;;15.18;3.88;;;;;;;15.57;80.35;98810.63;5047211;28;20024;-55
2022/06/20 00:32:25;;;;;;;13.82;3.83;;;;;;;15.62;80.28;98937.53;5030210;28;20029;-57
2022/06/20 00:34:50;;;;;;;9.52;3.50;;;;;;;15.80;80.14;99078.47;5062755;28;20035;-57
2022/06/20 00:37:18;;;;;;;13.10;4.03;;;;;;;15.75;81.41;99157.69;5065972;28;20375;-55
2022/06/20 00:39:43;;;;;;;13.93;5.50;;;;;;;15.35;88.54;99139.72;5064556;28;20048;-53
2022/06/20 00:42:09;;;;;;;32.97;7.82;;;;;;;14.89;95.98;99081.31;5064198;28;20055;-51
2022/06/20 00:44:36;;;;;;;35.80;9.35;;;;;;;13.96;100.00;99040.13;5029845;28;20276;-53
2022/06/20 00:47:04;;;;;;;38.20;13.10;;;;;;;13.23;100.00;98980.22;5048017;28;20047;-54
2022/06/20 00:49:34;;;;;;;27.23;14.02;;;;;;;13.17;100.00;99025.94;5017878;28;20072;-55
2022/06/20 00:52:03;;;;;;;25.97;13.80;;;;;;;13.19;100.00;99001.47;5063287;28;20040;-55
2022/06/20 00:54:34;;;;;;;22.48;13.35;;;;;;;13.02;100.00;98944.38;5063586;28;20494;-56
2022/06/20 00:57:22;;;;;;;20.70;14.43;;;;;;;13.10;100.00;98993.13;5035137;28;20051;-55
2022/06/20 01:00:12;;;;;;;28.98;17.30;;;;;;;13.15;100.00;99001.22;5046463;28;20444;-53
2022/06/20 01:02:46;;;;;;;27.65;19.15;;;;;;;13.52;100.00;99099.03;5028230;28;20487;-56
2022/06/20 01:05:19;;;;;;;29.23;15.88;;;;;;;13.26;100.00;99052.38;5031053;28;20033;-53
2022/06/20 01:07:55;;;;;;;30.30;15.73;;;;;;;13.47;100.00;99029.84;5038195;28;20017;-53
2022/06/20 01:10:21;;;;;;;25.58;17.63;;;;;;;13.55;100.00;98993.50;5066168;28;20048;-54
2022/06/20 01:13:03;;;;;;;29.10;16.02;;;;;;;13.76;100.00;99003.22;5048097;28;20028;-53
2022/06/20 01:15:36;;;;;;;31.90;18.05;;;;;;;13.84;100.00;99066.53;5045791;28;20028;-55
2022/06/20 01:18:02;;;;;;;24.58;18.00;;;;;;;13.88;100.00;99099.13;5051127;28;20036;-54
2022/06/20 01:20:32;;;;;;;28.27;18.52;;;;;;;13.94;100.00;99141.16;5052391;28;20024;-55
2022/06/20 01:23:16;;;;;;;27.52;18.08;;;;;;;13.95;100.00;99123.91;5042721;28;20028;-54
2022/06/20 01:25:58;;;;;;;25.65;17.27;;;;;;;13.66;100.00;99048.19;5069534;28;20151;-54
2022/06/20 01:28:28;;;;;;;25.52;17.45;;;;;;;13.68;100.00;98966.06;5046108;28;20075;-55
2022/06/20 01:30:54;;;;;;;;;;;;;;;13.64;100.00;98907.63;5046428;28;20405;-54
2022/06/20 01:33:20;;;;;;;25.35;15.73;;;;;;;13.42;100.00;98873.69;5056279;28;19917;-54
2022/06/20 01:38:30;;;;;;;29.77;21.58;;;;;;;13.46;100.00;98823.63;5067805;28;20028;-55
2022/06/20 01:43:40;;;;;;;28.40;21.65;;;;;;;13.40;100.00;98967.34;5068900;28;20506;-54
2022/06/20 01:46:10;;;;;;;34.67;21.73;;;;;;;13.41;100.00;98963.63;5053560;28;20040;-55
2022/06/20 01:48:49;;;;;;;35.70;22.83;;;;;;;13.68;100.00;99016.41;5067232;28;20026;-55
2022/06/20 01:51:23;;;;;;;31.38;21.85;;;;;;;13.71;100.00;98943.16;5069778;28;20450;-55
2022/06/20 01:53:49;;;;;;;25.98;18.23;;;;;;;13.76;100.00;98932.38;5069834;28;20013;-55
2022/06/20 01:56:15;;;;;;;24.92;18.15;;;;;;;13.84;100.00;98937.22;5070137;28;20388;-54
2022/06/20 01:58:44;;;;;;;21.98;16.98;;;;;;;13.88;100.00;98930.22;5048369;28;20016;-54
2022/06/20 02:01:17;;;;;;;17.95;14.80;;;;;;;13.80;100.00;98901.13;5052116;28;20033;-56
2022/06/20 02:03:43;;;;;;;22.92;16.75;;;;;;;13.89;100.00;98859.09;5037104;28;20060;-55
2022/06/20 02:06:10;;;;;;;20.40;15.50;;;;;;;13.78;100.00;98833.28;5051374;28;20021;-55
2022/06/20 02:08:36;;;;;;;21.25;15.95;;;;;;;13.78;100.00;98836.78;5065874;28;20021;-54
2022/06/20 02:11:08;;;;;;;22.15;16.35;;;;;;;13.61;100.00;98857.81;5020261;28;20048;-54
2022/06/20 02:13:35;;;;;;;17.23;15.38;;;;;;;13.52;100.00;98865.59;5048422;28;20032;-55
2022/06/20 02:16:04;;;;;;;19.90;16.05;;;;;;;13.62;100.00;98864.00;5024450;28;20136;-54
2022/06/20 02:18:31;;;;;;;22.10;16.88;;;;;;;13.79;100.00;98869.91;5038896;28;20399;-55
2022/06/20 02:20:59;;;;;;;22.52;16.45;;;;;;;13.81;100.00;98857.75;5037070;28;20105;-55
2022/06/20 02:23:26;;;;;;;24.98;18.63;;;;;;;13.80;100.00;98863.41;5063875;28;20032;-54
2022/06/20 02:25:52;;;;;;;23.17;17.77;;;;;;;13.81;100.00;98841.59;5064167;28;20390;-55
2022/06/20 02:28:22;;;;;;;25.67;18.63;;;;;;;13.81;100.00;98833.53;5052890;28;20391;-55
2022/06/20 02:30:48;;;;;;;21.60;16.73;;;;;;;13.69;100.00;98816.84;5047640;28;20033;-54
2022/06/20 02:33:19;;;;;;;25.50;17.65;;;;;;;13.71;100.00;98801.22;5043181;28;20025;-55
2022/06/20 02:35:48;;;;;;;22.50;15.93;;;;;;;13.76;100.00;98798.53;5069516;28;20028;-55
2022/06/20 02:38:14;;;;;;;21.35;15.27;;;;;;;13.70;100.00;98788.03;5034999;28;20024;-55
2022/06/20 02:40:41;;;;;;;21.98;16.35;;;;;;;13.62;100.00;98761.66;5051347;28;20028;-57
2022/06/20 02:43:21;;;;;;;21.83;15.43;;;;;;;13.76;100.00;98762.72;5028840;28;20554;-57
2022/06/20 02:45:46;;;;;;;18.95;16.23;;;;;;;13.63;100.00;98737.16;5070341;28;20502;-54
2022/06/20 02:48:12;;;;;;;21.35;16.17;;;;;;;13.59;100.00;98736.91;5069392;28;20066;-56
2022/06/20 02:50:41;;;;;;;24.05;18.80;;;;;;;13.55;100.00;98733.16;5058056;28;20021;-55
2022/06/20 02:53:38;;;;;;;22.88;16.98;;;;;;;13.45;100.00;98735.06;5020607;28;20091;-57
2022/06/20 02:56:07;;;;;;;24.75;18.13;;;;;;;13.59;100.00;98728.03;5065117;28;20032;-55
2022/06/20 02:58:34;;;;;;;24.58;19.77;;;;;;;13.64;100.00;98719.91;5069413;28;20067;-57
2022/06/20 03:01:06;;;;;;;22.13;18.45;;;;;;;13.46;100.00;98710.56;5053094;28;20056;-56
2022/06/20 03:03:36;;;;;;;24.83;19.55;;;;;;;13.54;100.00;98711.88;5068972;28;20474;-55
2022/06/20 03:06:03;;;;;;;25.60;18.27;;;;;;;13.52;100.00;98704.06;5069766;28;20036;-56
2022/06/20 03:08:30;;;;;;;25.00;17.65;;;;;;;13.40;100.00;98694.69;5045890;28;20028;-56
2022/06/20 03:10:57;;;;;;;23.88;18.67;;;;;;;13.57;100.00;98704.06;5045277;28;20045;-56
2022/06/20 03:13:22;;;;;;;25.00;19.35;;;;;;;13.72;100.00;98702.38;5070174;28;20059;-56
2022/06/20 03:15:50;;;;;;;23.55;18.00;;;;;;;13.69;100.00;98708.34;5069454;28;20032;-56
2022/06/20 03:18:18;;;;;;;21.85;17.90;;;;;;;13.72;100.00;98707.78;5041489;28;20029;-55
2022/06/20 03:20:44;;;;;;;22.48;17.63;;;;;;;13.80;100.00;98696.41;5039386;28;20113;-56
2022/06/20 03:23:14;;;;;;;25.25;18.95;;;;;;;13.84;100.00;98700.19;5047798;28;20033;-56
2022/06/20 03:25:40;;;;;;;25.48;18.45;;;;;;;13.96;100.00;98746.47;5068373;28;20033;-57
2022/06/20 03:28:25;;;;;;;25.98;19.67;;;;;;;13.93;100.00;98771.28;5069145;28;20463;-56
2022/06/20 03:30:51;;;;;;;23.40;18.40;;;;;;;13.87;100.00;98780.44;5054028;28;20036;-57
2022/06/20 03:33:17;;;;;;;26.65;18.00;;;;;;;13.89;100.00;98799.81;5050355;28;20044;-56
2022/06/20 03:35:52;;;;;;;22.10;17.63;;;;;;;13.90;100.00;98801.44;5067992;28;20124;-55
2022/06/20 03:38:17;;;;;;;24.25;17.77;;;;;;;13.80;100.00;98840.00;5068647;28;20028;-55
2022/06/20 03:40:43;;;;;;;24.23;16.45;;;;;;;14.75;100.00;98873.38;5050775;28;20082;-56
2022/06/20 03:43:11;;;;;;;23.77;16.92;;;;;;;14.52;100.00;98855.09;5068672;28;20329;-56
2022/06/20 03:45:38;;;;;;;32.28;18.20;;;;;;;14.14;100.00;98870.88;5050644;28;20020;-56
2022/06/20 03:48:06;;;;;;;23.50;17.58;;;;;;;14.60;100.00;98941.69;5033989;28;20076;-55
2022/06/20 03:50:35;;;;;;;26.52;18.25;;;;;;;14.79;100.00;98947.25;5067776;28;20029;-56
2022/06/20 03:53:14;;;;;;;21.08;16.33;;;;;;;14.59;100.00;98950.03;5038903;28;20029;-54
2022/06/20 03:55:49;;;;;;;20.67;15.30;;;;;;;14.35;100.00;98931.75;5047839;28;20036;-55
2022/06/20 03:58:20;;;;;;;20.48;16.00;;;;;;;14.32;100.00;98897.22;5055675;28;20032;-55
2022/06/20 04:00:55;;;;;;;21.00;15.45;;;;;;;14.23;100.00;98809.97;5024371;28;20025;-54
2022/06/20 04:03:25;;;;;;;19.35;15.77;;;;;;;14.02;100.00;98793.84;5033710;28;20032;-55
2022/06/20 04:06:04;;;;;;;25.33;15.93;;;;;;;13.65;100.00;98855.38;5039408;28;20071;-54
2022/06/20 04:11:54;;;;;;;25.75;17.90;;;;;;;13.90;100.00;98841.84;5026907;28;20502;-55
2022/06/20 04:14:26;;;;;;;23.63;17.80;;;;;;;13.91;100.00;98818.44;5043483;28;20036;-56
2022/06/20 04:16:54;;;;;;;25.42;17.38;;;;;;;14.05;100.00;98850.97;5015345;28;20035;-55
2022/06/20 04:19:30;;;;;;;25.20;17.73;;;;;;;14.20;100.00;98837.44;5029283;28;20028;-54
2022/06/20 04:22:01;;;;;;;24.95;17.23;;;;;;;14.32;100.00;98834.44;5014636;28;20029;-56
2022/06/20 04:24:37;;;;;;;22.45;16.13;;;;;;;14.46;100.00;98851.63;5005865;28;20084;-56
2022/06/20 04:27:15;;;;;;;23.38;16.77;;;;;;;14.54;100.00;98859.16;5030629;28;20025;-60
2022/06/20 04:29:42;;;;;;;24.95;18.25;;;;;;;14.24;100.00;98884.34;5026379;28;20040;-55
2022/06/20 04:32:29;;;;;;;25.17;18.17;;;;;;;14.11;100.00;98915.38;5047980;28;20048;-56
2022/06/20 04:34:57;;;;;;;23.33;17.65;;;;;;;14.13;100.00;98896.22;5021374;28;20017;-56
2022/06/20 04:37:54;;;;;;;21.42;16.90;;;;;;;14.26;100.00;98925.31;5046149;28;20079;-55
2022/06/20 04:40:26;;;;;;;25.88;17.92;;;;;;;14.21;100.00;98933.41;5029104;28;20041;-55
2022/06/20 04:42:52;;;;;;;24.05;17.13;;;;;;;14.15;100.00;98937.16;5046199;28;20056;-55
2022/06/20 04:45:25;;;;;;;20.73;16.38;;;;;;;14.29;100.00;98942.81;5047323;28;20024;-54
2022/06/20 04:47:56;;;;;;;22.27;15.75;;;;;;;14.19;100.00;98944.44;5047000;28;20028;-55
2022/06/20 04:50:22;;;;;;;;;;;;;;;14.19;100.00;98940.94;5004523;28;20036;-55
2022/06/20 04:52:48;;;;;;;19.13;14.63;;;;;;;14.38;100.00;98949.28;5024236;28;19935;-56
2022/06/20 04:55:15;;;;;;;19.42;14.93;;;;;;;14.59;100.00;98963.50;5027149;28;20021;-56
2022/06/20 04:57:41;;;;;;;19.42;14.23;;;;;;;14.51;100.00;98977.53;5019804;28;20696;-57
2022/06/20 05:00:09;;;;;;;19.10;15.23;;;;;;;14.63;100.00;98964.59;5035852;28;20041;-55
2022/06/20 05:02:34;;;;;;;24.33;13.00;;;;;;;15.13;100.00;98953.84;5047261;28;20035;-55
2022/06/20 05:05:00;;;;;;;19.13;13.15;;;;;;;14.89;100.00;98984.16;5047340;28;20033;-57
2022/06/20 05:07:33;;;;;;;19.33;12.65;;;;;;;14.93;100.00;99000.63;5048634;28;20470;-55
2022/06/20 05:10:21;;;;;;;17.85;12.15;;;;;;;14.82;100.00;99010.63;5022661;28;20096;-55
2022/06/20 05:12:55;;;;;;;17.25;11.02;;;;;;;14.56;100.00;99024.19;5029617;28;20059;-56
2022/06/20 05:15:40;;;;;;;13.95;9.13;;;;;;;14.55;100.00;99016.38;5030319;28;20021;-56
2022/06/20 05:18:14;;;;;;;9.32;7.03;;;;;;;14.67;99.80;99016.88;5043520;28;20094;-55
2022/06/20 05:20:40;;;;;;;14.95;7.47;;;;;;;14.65;99.91;99008.25;5046729;28;20029;-54
2022/06/20 05:23:39;;;;;;;10.70;7.03;;;;;;;14.14;100.00;99006.44;5019966;28;20149;-55
2022/06/20 05:26:05;;;;;;;11.18;7.88;;;;;;;14.21;100.00;99000.78;5002662;28;20037;-55
2022/06/20 05:28:32;;;;;;;11.05;8.23;;;;;;;13.94;100.00;98996.47;5007326;28;20115;-54
2022/06/20 05:30:57;;;;;;;11.57;8.63;;;;;;;13.96;100.00;98988.16;5000917;28;20029;-54
2022/06/20 05:33:24;;;;;;;11.45;8.63;;;;;;;14.08;100.00;98987.84;5046957;28;20025;-51
2022/06/20 05:36:12;;;;;;;10.60;8.35;;;;;;;14.09;100.00;98973.31;5019535;28;20116;-54
2022/06/20 05:38:56;;;;;;;13.35;9.05;;;;;;;13.92;100.00;98952.84;5032202;28;20045;-52
2022/06/20 05:41:21;;;;;;;10.70;8.25;;;;;;;13.79;100.00;98939.91;5023418;28;20494;-55
2022/06/20 05:43:47;;;;;;;14.25;7.47;;;;;;;13.81;100.00;98943.16;5018405;28;20034;-53
2022/06/20 05:46:15;;;;;;;9.80;7.07;;;;;;;13.79;100.00;98940.72;5045578;28;20021;-54
2022/06/20 05:48:51;;;;;;;11.27;7.65;;;;;;;13.75;100.00;98933.44;5029334;28;20611;-54
2022/06/20 05:51:18;;;;;;;10.50;6.43;;;;;;;13.71;100.00;98924.31;5026300;28;20522;-55
2022/06/20 05:53:44;;;;;;;10.68;7.35;;;;;;;13.76;100.00;98908.16;5013236;28;20026;-54
2022/06/20 05:56:22;;;;;;;9.40;6.47;;;;;;;13.65;100.00;98884.97;5023789;28;20033;-51
2022/06/20 05:58:48;;;;;;;8.48;6.38;;;;;;;13.74;100.00;98881.47;5032808;28;20210;-54
2022/06/20 06:01:18;;;;;;;7.53;5.32;;;;;;;13.42;100.00;98892.53;5020972;28;20040;-54
2022/06/20 06:03:53;;;;;;;6.57;5.18;;;;;;;13.51;100.00;98930.50;5044715;28;20466;-54
2022/06/20 06:06:23;;;;;;;7.55;6.03;;;;;;;13.40;100.00;98963.88;5049143;28;20079;-53
2022/06/20 06:08:51;;;;;;;7.95;6.05;;;;;;;13.62;100.00;98977.09;5042008;28;20044;-52
2022/06/20 06:11:55;;;;;;;9.30;6.45;;;;;;;13.56;100.00;98977.09;5051396;28;20655;-54
2022/06/20 06:14:36;;;;;;;9.30;6.30;;;;;;;13.63;100.00;98979.53;5065711;28;20036;-55
2022/06/20 06:17:04;;;;;;;;;;;;;;;13.88;100.00;98978.72;5071139;28;20070;-53
2022/06/20 06:19:42;;;;;;;7.53;5.55;;;;;;;13.85;100.00;98973.84;5069773;28;19924;-56
2022/06/20 06:22:19;;;;;;;11.85;5.78;;;;;;;13.77;100.00;98969.00;5042196;28;20052;-56
2022/06/20 06:24:45;;;;;;;6.40;5.10;;;;;;;13.44;100.00;98979.22;5051555;28;20029;-55
2022/06/20 06:27:17;;;;;;;8.60;6.60;;;;;;;13.63;100.00;98981.38;5036624;28;20029;-55
2022/06/20 06:29:46;;;;;;;8.15;6.70;;;;;;;13.41;100.00;98990.53;5021668;28;20087;-55
2022/06/20 06:32:36;;;;;;;10.93;7.07;;;;;;;13.76;100.00;98997.84;5022569;28;20024;-55
2022/06/20 06:35:17;;;;;;;;;;;;;;;13.61;100.00;99000.53;5058672;28;20368;-54
2022/06/20 06:38:04;;;;;;;12.05;9.05;;;;;;;13.26;100.00;98996.66;5069895;28;19920;-53
2022/06/20 06:40:34;;;;;;;10.77;8.45;;;;;;;13.49;100.00;98995.38;5050974;28;20025;-55
2022/06/20 06:43:00;;;;;;;11.48;9.20;;;;;;;13.54;100.00;98997.28;5053092;28;20650;-55
2022/06/20 06:45:27;;;;;;;13.90;9.93;;;;;;;13.27;100.00;98997.50;5051418;28;20021;-55
2022/06/20 06:48:03;;;;;;;11.73;9.57;;;;;;;13.45;100.00;99007.75;5050356;28;20024;-54
2022/06/20 06:50:41;;;;;;;14.98;10.23;;;;;;;13.51;100.00;99005.91;5046936;28;20111;-55
2022/06/20 06:53:16;;;;;;;16.73;10.27;;;;;;;13.63;100.00;99000.22;5043808;28;20032;-55
2022/06/20 06:55:43;;;;;;;15.02;10.80;;;;;;;13.54;99.39;99003.47;5067133;28;20024;-56
2022/06/20 06:58:43;;;;;;;21.05;12.13;;;;;;;13.44;100.00;99013.41;5051236;28;20024;-56
2022/06/20 07:01:13;;;;;;;16.65;11.40;;;;;;;13.45;99.40;99010.44;5063362;28;20029;-55
2022/06/20 07:04:08;;;;;;;14.10;12.00;;;;;;;13.68;99.19;99000.25;5069554;28;20032;-55
2022/06/20 07:06:36;;;;;;;15.38;12.15;;;;;;;13.97;97.70;99006.72;5058864;28;20052;-55
2022/06/20 07:09:08;;;;;;;17.35;13.23;;;;;;;13.50;99.62;99033.88;5067718;28;20037;-54
2022/06/20 07:11:33;;;;;;;19.52;15.18;;;;;;;13.20;100.00;99039.97;5029771;28;20048;-55
2022/06/20 07:14:11;;;;;;;19.92;15.65;;;;;;;13.41;100.00;99027.41;5037050;28;20025;-55
2022/06/20 07:16:41;;;;;;;22.02;15.48;;;;;;;13.40;100.00;99028.47;5064014;28;20032;-55
2022/06/20 07:19:07;;;;;;;22.42;18.55;;;;;;;13.17;100.00;99039.41;5044964;28;20024;-55
2022/06/20 07:21:32;;;;;;;25.33;18.13;;;;;;;13.35;100.00;99027.41;5069495;28;20483;-55
2022/06/20 07:24:00;;;;;;;19.77;17.50;;;;;;;13.87;99.63;99032.84;5043839;28;20035;-56
2022/06/20 07:26:28;;;;;;;20.38;16.58;;;;;;;13.70;98.65;99062.72;5040880;28;20450;-55
2022/06/20 07:29:04;;;;;;;19.20;16.60;;;;;;;13.74;99.23;99080.78;5034110;28;20035;-56
2022/06/20 07:31:33;;;;;;;18.63;14.90;;;;;;;14.18;98.88;99090.28;5039141;28;20391;-56
2022/06/20 07:34:14;;;;;;;23.50;17.63;;;;;;;13.82;100.00;99088.34;5047405;28;20108;-55
2022/06/20 07:36:49;;;;;;;20.23;17.20;;;;;;;13.83;99.23;99067.63;5046899;28;20024;-55
2022/06/20 07:39:30;;;;;;;18.75;15.77;;;;;;;14.24;98.44;99064.94;5046591;28;20047;-55
2022/06/20 07:42:01;;;;;;;21.98;17.65;;;;;;;13.92;99.66;99084.03;5050800;28;20029;-56
2022/06/20 07:44:31;;;;;;;23.48;18.27;;;;;;;13.97;99.15;99111.00;5034935;28;20048;-55
2022/06/20 07:47:10;;;;;;;21.10;17.92;;;;;;;13.98;95.78;99110.75;5035287;28;20475;-56
2022/06/20 07:49:41;;;;;;;21.98;17.48;;;;;;;13.80;99.50;99108.53;5043643;28;20120;-55
2022/06/20 07:52:12;;;;;;;21.58;17.52;;;;;;;14.16;97.97;99122.06;5068876;28;20089;-56
2022/06/20 07:54:41;;;;;;;19.48;17.20;;;;;;;14.01;97.20;99131.75;5039564;28;20123;-55
2022/06/20 07:57:10;;;;;;;23.45;19.15;;;;;;;13.70;98.72;99136.25;5026243;28;20498;-56
2022/06/20 07:59:41;;;;;;;24.60;18.35;;;;;;;14.04;99.54;99135.78;5038864;28;20059;-54
2022/06/20 08:02:14;;;;;;;25.42;18.98;;;;;;;14.10;97.30;99140.09;5067032;28;20021;-57
2022/06/20 08:04:39;;;;;;;21.52;18.33;;;;;;;13.76;98.64;99145.19;5030087;28;20053;-56
2022/06/20 08:07:20;;;;;;;24.27;19.42;;;;;;;13.87;98.73;99132.53;5048534;28;20024;-55
2022/06/20 08:09:58;;;;;;;25.27;20.30;;;;;;;13.79;98.03;99134.66;5052223;28;20064;-56
2022/06/20 08:12:57;;;;;;;23.35;19.95;;;;;;;14.00;97.12;99146.31;5060467;28;20024;-54
2022/06/20 08:15:26;;;;;;;23.08;19.52;;;;;;;13.81;97.73;99154.06;5054553;28;20035;-54
2022/06/20 08:17:51;;;;;;;21.70;18.85;;;;;;;14.09;96.00;99149.28;5028465;28;20036;-54
2022/06/20 08:20:17;;;;;;;27.38;20.13;;;;;;;13.94;97.75;99160.84;5047037;28;20017;-54
2022/06/20 08:22:47;;;;;;;26.45;20.83;;;;;;;13.62;98.33;99170.97;5049047;28;20429;-54
2022/06/20 08:25:13;;;;;;;;;;;;;;;13.61;99.09;99186.31;5051128;28;20467;-54
2022/06/20 08:27:43;;;;;;;27.98;22.05;;;;;;;13.49;100.00;99207.28;5067620;28;19923;-55
2022/06/20 08:30:26;;;;;;;31.70;23.67;;;;;;;13.57;96.88;99212.97;5021469;28;20085;-55
2022/06/20 08:33:00;;;;;;;35.75;24.95;;;;;;;13.16;100.00;99228.88;5044824;28;20565;-53
2022/06/20 08:35:39;;;;;;;32.85;24.70;;;;;;;13.58;99.59;99230.75;5067941;28;20028;-55
2022/06/20 08:38:46;;;;;;;36.53;27.53;;;;;;;13.30;100.00;99226.53;5046816;28;20024;-54
2022/06/20 08:41:42;;;;;;;40.42;29.38;;;;;;;13.28;100.00;99231.41;5055947;28;20097;-55
2022/06/20 08:44:32;;;;;;;41.65;28.83;;;;;;;13.47;100.00;99229.06;5042234;28;20020;-53
2022/06/20 08:47:31;;;;;;;49.63;30.48;;;;;;;13.47;100.00;99223.69;5065752;28;20060;-55
2022/06/20 08:50:19;;;;;;;40.20;27.88;;;;;;;13.38;99.96;99236.84;5034528;28;20041;-55
2022/06/20 08:53:06;;;;;;;31.83;25.10;;;;;;;13.27;99.93;99228.94;5068446;28;20052;-56
2022/06/20 08:55:34;;;;;;;34.03;25.23;;;;;;;13.27;100.00;99231.66;5067327;28;20024;-53
2022/06/20 08:58:21;;;;;;;34.92;25.08;;;;;;;13.52;100.00;99229.09;5061891;28;20097;-54
2022/06/20 09:01:04;;;;;;;35.03;23.83;;;;;;;13.59;99.01;99237.75;5064579;28;20115;-54
2022/06/20 09:03:48;;;;;;;27.70;22.65;;;;;;;13.85;97.53;99237.84;5067125;28;20467;-54
2022/06/20 09:06:22;;;;;;;28.60;21.98;;;;;;;13.35;98.66;99231.97;5067098;28;20024;-57
2022/06/20 09:09:04;;;;;;;30.48;23.85;;;;;;;13.28;100.00;99241.31;5067404;28;20075;-54
2022/06/20 09:12:09;;;;;;;27.20;20.13;;;;;;;13.04;100.00;99252.44;5049547;28;20041;-55
2022/06/20 09:14:46;;;;;;;24.67;20.25;;;;;;;13.01;100.00;99247.59;5063376;28;20120;-54
2022/06/20 09:17:20;;;;;;;24.83;18.08;;;;;;;13.27;98.72;99245.91;5025043;28;20479;-54
2022/06/20 09:19:58;;;;;;;30.90;18.60;;;;;;;12.99;99.16;99244.34;5062060;28;20040;-52
2022/06/20 09:22:46;;;;;;;27.92;19.60;;;;;;;12.97;100.00;99251.06;5066107;28;20107;-56
2022/06/20 09:25:25;;;;;;;21.73;16.55;;;;;;;13.03;99.00;99260.78;5052882;28;20045;-53
2022/06/20 09:28:28;;;;;;;21.92;16.45;;;;;;;12.62;99.66;99261.25;5040975;28;20490;-56
2022/06/20 09:31:30;;;;;;;22.73;16.48;;;;;;;13.00;98.47;99282.81;5069166;28;20032;-56
2022/06/20 09:34:01;;;;;;;21.38;14.68;;;;;;;12.64;100.00;99280.63;5068852;28;20123;-55
2022/06/20 09:36:55;;;;;;;21.70;13.45;;;;;;;12.68;100.00;99278.22;5070263;28;20036;-56
2022/06/20 09:39:32;;;;;;;15.38;12.52;;;;;;;12.56;100.00;99283.78;5045798;28;20017;-57
2022/06/20 09:42:06;;;;;;;18.10;11.75;;;;;;;12.47;100.00;99285.28;5048594;28;21448;-55
2022/06/20 09:45:04;;;;;;;13.45;9.30;;;;;;;12.28;100.00;99288.34;5070979;28;20040;-55
2022/06/20 09:47:39;;;;;;;9.25;6.47;;;;;;;12.36;100.00;99313.16;5050057;28;20115;-56
2022/06/20 09:50:33;;;;;;;11.63;5.55;;;;;;;12.73;96.99;99311.38;5050268;28;20051;-56
2022/06/20 09:53:11;;;;;;;7.18;4.32;;;;;;;12.68;96.86;99319.41;5043659;28;20429;-56
2022/06/20 09:56:01;;;;;;;7.22;3.97;;;;;;;12.30;97.70;99329.22;5066629;28;20388;-55
2022/06/20 09:58:32;;;;;;;9.13;4.10;;;;;;;12.48;95.84;99317.31;5033791;28;20535;-55
2022/06/20 10:01:37;;;;;;;8.07;3.85;;;;;;;12.17;97.73;99313.44;5067653;28;20044;-57
2022/06/20 10:04:24;;;;;;;5.22;3.28;;;;;;;12.35;98.20;99314.19;4968925;28;20036;-54
2022/06/20 10:06:59;;;;;;;6.30;3.60;;;;;;;12.48;97.66;99320.00;5068508;28;20024;-56
2022/06/20 10:09:50;;;;;;;4.55;2.63;;;;;;;12.51;96.57;99324.88;5045988;28;20475;-58
2022/06/20 10:12:23;;;;;;;4.60;2.70;;;;;;;12.28;96.92;99334.03;5066897;28;20120;-56
2022/06/20 10:15:10;;;;;;;7.15;2.92;;;;;;;12.04;99.36;99343.38;5056081;28;20032;-56
2022/06/20 10:17:50;;;;;;;7.95;2.80;;;;;;;12.05;98.45;99359.25;5016033;28;20032;-56
2022/06/20 10:20:37;;;;;;;7.18;2.63;;;;;;;12.21;98.20;99362.97;5069915;28;20024;-56
2022/06/20 10:23:40;;;;;;;5.35;2.70;;;;;;;12.17;98.87;99361.81;5066185;28;20130;-56
2022/06/20 10:26:23;;;;;;;6.07;2.90;;;;;;;12.39;100.00;99379.84;5069861;28;20467;-55
2022/06/20 10:29:10;;;;;;;5.93;3.08;;;;;;;12.45;98.49;99379.63;5051956;28;20246;-56
2022/06/20 10:31:43;;;;;;;6.82;3.22;;;;;;;12.51;97.86;99373.25;5018594;28;20120;-56
2022/06/20 10:34:37;;;;;;;9.70;2.97;;;;;;;12.64;95.67;99360.50;5070313;28;20162;-56
2022/06/20 10:37:20;;;;;;;4.47;2.20;;;;;;;12.74;94.09;99356.03;5037019;28;20103;-56
2022/06/20 10:39:57;;;;;;;5.63;2.42;;;;;;;12.66;96.23;99374.50;5067161;28;20086;-55
2022/06/20 10:42:30;;;;;;;3.80;2.00;;;;;;;12.36;97.06;99374.97;5050415;28;20021;-56
2022/06/20 10:45:16;;;;;;;4.90;2.72;;;;;;;12.96;95.16;99384.75;5051027;28;20394;-56
2022/06/20 10:47:46;;;;;;;4.80;2.05;;;;;;;13.47;92.20;99379.84;5025910;28;20036;-56
2022/06/20 10:50:38;;;;;;;3.67;2.10;;;;;;;13.43;90.97;99367.97;5020783;28;20121;-56
2022/06/20 10:53:12;;;;;;;3.63;1.85;;;;;;;13.34;90.71;99361.44;5048309;28;20487;-55
2022/06/20 10:56:05;;;;;;;3.90;1.77;;;;;;;13.31;90.96;99367.34;5068323;28;20033;-55
2022/06/20 10:58:46;;;;;;;3.10;1.95;;;;;;;12.37;95.15;99380.06;5047696;28;20457;-55
2022/06/20 11:01:14;;;;;;;;;;;;;;;12.67;93.94;99366.16;5069446;28;20417;-56
2022/06/20 11:03:46;;;;;;;3.80;1.60;;;;;;;12.57;92.10;99359.88;5066000;28;20007;-56
2022/06/20 11:06:26;;;;;;;2.85;1.60;;;;;;;12.47;86.91;99334.50;5048043;28;20502;-55
2022/06/20 11:09:03;;;;;;;2.70;1.52;;;;;;;12.54;87.64;99365.75;5069045;28;20025;-56
2022/06/20 11:11:35;;;;;;;4.88;1.60;;;;;;;12.36;91.53;99370.41;5051397;28;20043;-55
2022/06/20 11:14:22;;;;;;;5.28;1.88;;;;;;;12.47;89.78;99379.38;5069093;28;20035;-56
2022/06/20 11:17:07;;;;;;;3.28;1.60;;;;;;;12.75;88.36;99386.41;5068606;28;20383;-56
2022/06/20 11:20:00;;;;;;;5.45;1.70;;;;;;;12.85;87.86;99396.47;5049334;28;20047;-55
2022/06/20 11:22:39;;;;;;;5.70;1.70;;;;;;;12.56;84.35;99390.53;5047339;28;20123;-56
2022/06/20 11:25:37;;;;;;;5.40;2.00;;;;;;;12.88;88.47;99387.88;5052447;28;20040;-55
2022/06/20 11:28:25;;;;;;;4.53;2.05;;;;;;;13.38;85.04;99387.59;5036855;28;20028;-56
2022/06/20 11:31:21;;;;;;;4.63;1.85;;;;;;;12.97;86.90;99396.31;5054376;28;20146;-55
2022/06/20 11:34:28;;;;;;;4.85;1.65;;;;;;;13.01;86.03;99379.44;5067762;28;20020;-55
2022/06/20 11:37:24;;;;;;;4.70;1.70;;;;;;;13.06;83.00;99394.81;5069381;28;20035;-55
2022/06/20 11:39:59;;;;;;;7.40;1.65;;;;;;;13.50;81.50;99408.13;5065457;28;20073;-55
2022/06/20 11:42:53;;;;;;;4.82;1.50;;;;;;;13.09;83.04;99411.25;5052483;28;20115;-56
2022/06/20 11:45:26;;;;;;;4.35;1.88;;;;;;;13.05;82.98;99415.50;5045555;28;20078;-56
2022/06/20 11:48:13;;;;;;;3.47;1.70;;;;;;;13.44;85.72;99422.63;5058055;28;20025;-56
2022/06/20 11:50:40;;;;;;;8.45;1.80;;;;;;;13.25;84.12;99414.06;5066425;28;20135;-56
2022/06/20 11:53:15;;;;;;;5.57;1.70;;;;;;;13.63;75.47;99396.09;5067609;28;20039;-56
2022/06/20 11:55:48;;;;;;;4.97;2.00;;;;;;;13.76;76.77;99393.78;5068616;28;20050;-55
2022/06/20 11:58:47;;;;;;;4.35;1.70;;;;;;;13.24;76.80;99385.56;5038891;28;20035;-56
2022/06/20 12:01:15;;;;;;;5.13;2.10;;;;;;;13.31;80.64;99381.59;5063662;28;20032;-56
2022/06/20 12:04:18;;;;;;;10.32;2.30;;;;;;;13.59;76.26;99385.06;5043302;28;20487;-56